Ana Sayfa
METAR-TAF:

METAR-TAF

Havaalanları :

Fort Rucker, Alabama, Amerika Birleşik Devletleri

Enlem: 31-21-32N, Boylam: 085-44-54W, yükseklik: 78 m

Güncel hava durumu gözlemi

Rapor saat 17:55 UTC de 1 saat ve 2 dakika önce yapıldı.
Rüzgar batı/kuzeybatıdan 5 kt
Sıcaklık 37°C
Nem 40%
Basınç 1014 hPa
Görüş mesafesi: 16.1 km
7000 ft yükseklikte az bulutlu

METAR: KLOR 251755Z AUTO 30005KT 10SM FEW070 37/21 A2993 RMK AO2 SLP116 T03690206 10370 20250 58006

Saat: 13:57 (18:57 UTC)


TAF: eksik

4.000'den fazla havaalanı için hava durumu gözlemleri ve tahminleri (METAR ve TAF raporları).

Kullanılabilir istasyonlar harita üzerinde sarı ve kırmızı noktalarla gösterilir.

İstasyonun adını görmek için fareyi noktanın üzerinde gezdirin.

Sonrasında hava gözlem ve tahminlerini görmek için tıklayın.

Haritayı değiştirmek için: yaklaştırmak için siyah artı işaretli yeşil düğmeye ve uzaklaştırmak için de eksi işaretli düğmeye hızla tıklayın; bitişik haritalar için yeşil okları kullanın.


METAR-TAF: